Eugenie — WDF2441 — position and weather

sailwx.info

Track history (hours):
 
Tides and Currents Weather Stations Pressure Air Temp Water Temp Dewpoint Dewpoint Depression Visibility Wind Speed Wind Dir Waves Ship Positions

Eugenie

Owner: Enterprise Marine Services, LLC, San Antonio, TX. More information available from US FCC via Universal Licensing System and Coast Guard Vessel Documentation Center.

Last reported at 2018-Jan-21 21:27 UTC. Time now 2018-Feb-19 04:30 UTC.
Position N 32°38' W 091°09'.
Warning: this ship's position is 28 days out of date.

Length 24 m; draft 2.9 m.

Type: . MMSI: 367167020.

Date/timePositionNaut miles runAvg speedWind from/ knotsBaromVisibWave heightAir tempDewpointWater temp
2018-Jan-21 21:27N 32°38' W 091°09'3 4.1
2018-Jan-21 20:40N 32°35' W 091°07'1 4.4
2018-Jan-21 20:20N 32°34' W 091°06'4 5.8
2018-Jan-21 19:38N 32°30' W 091°07'1 6.0
2018-Jan-21 19:29N 32°29' W 091°07'2 5.1
2018-Jan-21 19:01N 32°27' W 091°05'2 4.6
2018-Jan-21 18:31N 32°26' W 091°03'2 4.5
2018-Jan-21 18:00N 32°25' W 091°00'2 4.8
2018-Jan-21 17:31N 32°23' W 090°60'2 4.7
2018-Jan-21 17:01N 32°21' W 090°58'2 4.9
2018-Jan-21 16:30N 32°21' W 090°55'1 2.8
2018-Jan-21 16:00N 32°20' W 090°54'0 0.1
2018-Jan-21 15:31N 32°20' W 090°54'0 0.0
2018-Jan-21 15:01N 32°20' W 090°54'0 0.0
2018-Jan-21 14:31N 32°20' W 090°54'0 0.0
2018-Jan-21 14:00N 32°20' W 090°54'2 4.0
2018-Jan-21 13:30N 32°18' W 090°55'0 0.8
2018-Jan-21 13:01N 32°18' W 090°55'2 3.0
2018-Jan-21 12:30N 32°17' W 090°56'3 5.7
2018-Jan-21 12:00N 32°15' W 090°59'2 4.0
2018-Jan-21 11:30N 32°13' W 090°59'1 1.4
2018-Jan-21 11:00N 32°12' W 090°59'2 4.9
2018-Jan-21 10:30N 32°10' W 091°00'2 4.9
2018-Jan-21 10:01N 32°08' W 091°01'4 5.7
2018-Jan-21 09:13N 32°08' W 091°06'1 4.4
2018-Jan-21 08:58N 32°07' W 091°06'5 5.0
2018-Jan-21 07:57N 32°02' W 091°04'  
Track history (hours):
 
Tides and Currents Weather Stations Pressure Air Temp Water Temp Dewpoint Dewpoint Depression Visibility Wind Speed Wind Dir Waves Ship Positions

Eugenie

Owner: Enterprise Marine Services, LLC, San Antonio, TX. More information available from US FCC via Universal Licensing System and Coast Guard Vessel Documentation Center.

Last reported at 2018-Jan-21 21:27 UTC. Time now 2018-Feb-19 04:30 UTC.
Position N 32°38' W 091°09'.
Warning: this ship's position is 28 days out of date.

Length 24 m; draft 2.9 m.

Type: . MMSI: 367167020.

Date/timePositionNaut miles runAvg speedWind from/ knotsBaromVisibWave heightAir tempDewpointWater temp
2018-Jan-21 21:27N 32°38' W 091°09'3 4.1
2018-Jan-21 20:40N 32°35' W 091°07'1 4.4
2018-Jan-21 20:20N 32°34' W 091°06'4 5.8
2018-Jan-21 19:38N 32°30' W 091°07'1 6.0
2018-Jan-21 19:29N 32°29' W 091°07'2 5.1
2018-Jan-21 19:01N 32°27' W 091°05'2 4.6
2018-Jan-21 18:31N 32°26' W 091°03'2 4.5
2018-Jan-21 18:00N 32°25' W 091°00'2 4.8
2018-Jan-21 17:31N 32°23' W 090°60'2 4.7
2018-Jan-21 17:01N 32°21' W 090°58'2 4.9
2018-Jan-21 16:30N 32°21' W 090°55'1 2.8
2018-Jan-21 16:00N 32°20' W 090°54'0 0.1
2018-Jan-21 15:31N 32°20' W 090°54'0 0.0
2018-Jan-21 15:01N 32°20' W 090°54'0 0.0
2018-Jan-21 14:31N 32°20' W 090°54'0 0.0
2018-Jan-21 14:00N 32°20' W 090°54'2 4.0
2018-Jan-21 13:30N 32°18' W 090°55'0 0.8
2018-Jan-21 13:01N 32°18' W 090°55'2 3.0
2018-Jan-21 12:30N 32°17' W 090°56'3 5.7
2018-Jan-21 12:00N 32°15' W 090°59'2 4.0
2018-Jan-21 11:30N 32°13' W 090°59'1 1.4
2018-Jan-21 11:00N 32°12' W 090°59'2 4.9
2018-Jan-21 10:30N 32°10' W 091°00'2 4.9
2018-Jan-21 10:01N 32°08' W 091°01'4 5.7
2018-Jan-21 09:13N 32°08' W 091°06'1 4.4
2018-Jan-21 08:58N 32°07' W 091°06'5 5.0
2018-Jan-21 07:57N 32°02' W 091°04'  

Dump ship's entire track history